Cunningham, Washington
Current Conditions -  °F | °C
As of 8:52 AM on Thursday 23 Oct 2014 (Local Time) from KMWH Reporting Station
Overcast Overcast  
Wind Chill: 53°   Ceiling: 5500
Heat Index: 53°   Visibility: 10mi
Dew Point: 50°   Wind: 8mph
Humidity: 89%   Direction: 180°S
Pressure: 29.77"   Gusts: NA
Location:  46.82°N, 118.81°W
Report Text: KMWH 231552Z 18007KT 10SM BKN055 OVC070 12/10 A2977 RMK AO2 RAB28E47 SLP082 P0001 T01170100
Loading
Personal Weather Stations






























Interactive Weather Map
Tropical Storm Tracking
New forecast layout! Learn more

10-Day Weather Forecast

Advertisements
Track Severe Weather on mobile